Latest Weather Observations for Woomera

IDS60801

Issued at 10:32 pm CST Tuesday 21 April 2015 (issued every 30 minutes, with the page automatically refreshed every 10 minutes)

About weather observations | Map of weather stations | Latest weather observations for SA | Other Formats
Station Details ID: 016001 Name: WOOMERA AERODROME Lat: -31.16 Lon: 136.81 Height: 166.6 m
Data from the previous 72 hours. | See also: Recent months at Woomera
Date/Time
CST
Temp
°C
App
Temp
°C
Dew
Point
Rel
Hum
%
Delta-T
°C
Wind Press
QNH
hPa
Press
MSL
hPa
Rain
since 9 am
mm
Dir
 
Spd
km/h
Gust
km/h
Spd
kts
Gust
kts
21/10:30pm 12.9 9.1 4.1 55 4.0 SSE 13 17 7 9 1027.1 - 0.0
21/10:00pm 13.4 9.2 3.9 52 4.3 SSE 15 20 8 11 1027.1 - 0.0
21/09:30pm 13.7 9.4 3.2 49 4.7 SSE 15 20 8 11 1027.0 - 0.0
21/09:00pm 14.0 10.0 3.1 48 4.9 SSE 13 15 7 8 1027.1 1026.7 0.0
21/08:30pm 14.6 10.6 2.8 45 5.3 SE 13 17 7 9 1027.1 - 0.0
21/08:00pm 15.1 10.2 2.3 42 5.7 SE 17 19 9 10 1026.8 - 0.0
21/07:30pm 15.5 10.6 2.0 40 6.0 SE 17 20 9 11 1026.7 - 0.0
21/07:00pm 16.0 11.1 1.8 38 6.3 SE 17 22 9 12 1026.5 - 0.0
21/06:30pm 16.6 11.7 2.2 38 6.5 SE 17 22 9 12 1026.3 - 0.0
21/06:00pm 17.2 11.5 0.5 32 7.3 SSE 20 30 11 16 1026.3 1025.9 0.0
21/05:30pm 18.0 12.2 0.1 30 7.9 SSE 20 26 11 14 1026.2 - 0.0
21/05:00pm 18.3 12.3 1.0 31 7.8 SSE 22 32 12 17 1026.3 - 0.0
21/04:30pm 18.3 12.0 1.4 32 7.6 S 24 30 13 16 1026.6 - 0.0
21/04:00pm 18.8 13.3 1.9 32 7.7 S 20 28 11 15 1026.7 - 0.0
21/03:30pm 18.8 13.7 0.9 30 8.0 S 17 26 9 14 1027.0 - 0.0
21/03:00pm 19.1 14.4 1.1 30 8.1 S 15 26 8 14 1027.3 1026.9 0.0
21/02:30pm 18.1 13.6 2.0 34 7.4 SSE 15 19 8 10 1027.4 - 0.0
21/02:00pm 18.1 12.5 -0.1 29 8.0 SSE 19 28 10 15 1028.0 - 0.0
21/01:30pm 18.2 13.1 0.8 31 7.8 SSE 17 26 9 14 1028.5 - 0.0
21/01:00pm 17.2 11.7 0.8 33 7.3 SSE 19 30 10 16 1029.1 - 0.0
21/12:00pm 16.6 11.2 1.5 36 6.7 SE 19 30 10 16 1030.4 1030.0 0.0
21/11:30am 16.2 10.4 2.4 39 6.3 ESE 22 28 12 15 1030.9 - 0.0
21/11:00am 15.4 9.3 3.0 43 5.6 ESE 24 30 13 16 1031.2 - 0.0
21/10:30am 15.1 8.6 2.9 44 5.5 ESE 26 33 14 18 1031.6 - 0.0
21/10:00am 14.4 7.6 3.0 46 5.1 ESE 28 35 15 19 1031.9 - 0.0
21/09:30am 13.5 6.7 3.2 49 4.6 SE 28 33 15 18 1031.9 - 0.0
21/09:00am 12.8 6.6 4.2 56 3.9 SE 26 33 14 18 1032.1 1031.7 0.0
21/08:30am 11.6 5.9 4.8 63 3.1 SE 24 30 13 16 1032.1 - 0.0
21/07:30am 9.3 5.0 5.3 76 1.8 SE 17 22 9 12 1031.7 - 0.0
21/07:00am 8.6 4.7 5.3 80 1.5 SE 15 19 8 10 1031.7 - 0.0
21/06:30am 8.4 4.0 5.0 79 1.5 SSE 17 20 9 11 1031.5 - 0.0
21/06:00am 8.4 4.4 4.8 78 1.6 SSE 15 19 8 10 1031.4 1031.0 0.0
21/05:30am 8.5 4.5 4.7 77 1.7 SSE 15 19 8 10 1031.4 - 0.0
21/05:00am 8.4 5.1 4.5 76 1.7 SSE 11 15 6 8 1031.6 - 0.0
21/04:30am 8.7 4.6 4.4 74 1.9 SSE 15 20 8 11 1031.4 - 0.0
21/04:00am 8.9 5.2 4.4 73 2.0 SE 13 17 7 9 1031.2 - 0.0
21/03:30am 9.2 4.6 3.7 68 2.4 SE 17 22 9 12 1031.2 - 0.0
21/03:00am 9.1 4.0 3.3 67 2.5 SE 19 24 10 13 1031.3 1030.9 0.0
21/02:30am 9.2 4.5 2.9 65 2.7 SSE 17 20 9 11 1031.6 - 0.0
21/02:00am 9.2 6.3 2.6 63 2.8 SSE 7 9 4 5 1032.0 - 0.0
21/01:30am 9.5 5.0 2.4 61 3.0 SSE 15 19 8 10 1032.0 - 0.0
21/01:00am 9.7 6.0 2.4 60 3.1 SSE 11 13 6 7 1032.3 - 0.0
21/12:30am 9.8 6.1 2.2 59 3.2 SSE 11 15 6 8 1032.4 - 0.0
21/12:00am 10.9 6.3 1.6 52 3.9 SSE 15 19 8 10 1032.7 1032.3 0.0
 
Date/Time
CST
Temp
°C
App
Temp
°C
Dew
Point
Rel
Hum
%
Delta-T
°C
Wind Press
QNH
hPa
Press
MSL
hPa
Rain
since 9 am
mm
Dir
 
Spd
km/h
Gust
km/h
Spd
kts
Gust
kts
20/11:30pm 11.2 6.2 1.5 51 4.1 SSE 17 19 9 10 1032.9 - 0.0
20/11:00pm 11.6 6.6 1.1 48 4.4 SSE 17 24 9 13 1033.1 - 0.0
20/10:30pm 11.9 6.4 0.9 47 4.6 SSE 19 24 10 13 1033.1 - 0.0
20/10:00pm 12.3 6.6 0.5 44 5.0 SSE 20 28 11 15 1033.0 - 0.0
20/09:30pm 12.4 7.2 0.0 42 5.2 SSE 17 20 9 11 1033.1 - 0.0
20/09:00pm 13.0 7.3 -0.4 39 5.5 SSE 19 24 10 13 1032.9 1032.5 0.0
20/08:30pm 13.4 7.7 -0.4 38 5.7 SSE 19 24 10 13 1032.8 - 0.0
20/08:00pm 13.7 7.8 -0.6 37 5.9 SSE 20 28 11 15 1032.5 - 0.0
20/07:30pm 13.9 8.5 -1.4 35 6.3 SSE 17 22 9 12 1032.4 - 0.0
20/07:00pm 14.1 8.6 -2.2 32 6.6 SSE 17 20 9 11 1032.2 - 0.0
20/06:30pm 14.8 8.7 -2.5 30 7.0 SE 20 30 11 16 1032.0 - 0.0
20/06:00pm 15.4 8.7 -4.2 25 7.6 SE 22 30 12 16 1031.9 1031.5 0.0
20/05:30pm 16.0 9.2 -5.3 22 8.2 SE 22 28 12 15 1031.8 - 0.0
20/05:00pm 16.6 9.8 -4.9 22 8.4 SE 22 32 12 17 1031.6 - 0.0
20/04:30pm 16.8 9.3 -4.4 23 8.4 SE 26 33 14 18 1031.8 - 0.0
20/04:00pm 16.6 9.4 -5.3 22 8.5 SSE 24 32 13 17 1031.9 - 0.0
20/03:30pm 17.1 9.9 -5.2 21 8.7 SE 24 33 13 18 1032.0 - 0.0
20/03:00pm 17.4 10.7 -4.0 23 8.5 SE 22 32 12 17 1032.1 1031.7 0.0
20/02:30pm 16.9 9.9 -3.3 25 8.2 SE 24 37 13 20 1032.4 - 0.0
20/02:00pm 16.5 9.5 -3.3 25 8.0 SSE 24 37 13 20 1032.5 - 0.0
20/01:30pm 16.0 9.2 -4.8 23 8.1 SSE 22 35 12 19 1033.0 - 0.0
20/01:00pm 16.0 8.2 -3.5 26 7.8 SE 28 35 15 19 1033.5 - 0.0
20/12:30pm 15.0 7.8 -2.1 31 7.0 SSE 26 33 14 18 1034.1 - 0.0
20/12:00pm 14.9 7.8 -1.2 33 6.6 ESE 26 33 14 18 1034.8 1034.5 0.0
20/11:30am 15.0 7.9 -1.5 32 6.8 SE 26 37 14 20 1035.0 - 0.0
20/11:00am 14.3 6.9 -0.7 35 6.3 ESE 28 35 15 19 1035.6 - 0.0
20/10:30am 13.7 6.7 -0.3 38 5.9 ESE 26 35 14 19 1035.9 - 0.0
20/10:00am 13.4 6.2 0.5 41 5.5 SE 28 37 15 20 1036.1 - 0.0
20/09:30am 13.0 6.2 0.9 43 5.2 SE 26 33 14 18 1036.0 - 0.0
20/09:00am 12.1 5.0 1.5 48 4.5 SE 28 35 15 19 1036.0 1035.7 0.0
20/08:30am 10.8 4.2 2.1 55 3.7 SE 26 33 14 18 1035.9 - 0.0
20/08:00am 9.6 4.3 3.1 64 2.8 SE 20 24 11 13 1035.7 - 0.0
20/07:30am 8.5 3.5 3.4 70 2.2 SE 19 24 10 13 1035.2 - 0.0
20/07:00am 7.6 2.9 3.4 75 1.8 SSE 17 20 9 11 1035.1 - 0.0
20/06:30am 7.5 2.9 3.5 76 1.7 SE 17 20 9 11 1035.0 - 0.0
20/06:00am 7.9 3.2 3.4 73 1.9 SE 17 20 9 11 1034.9 1034.6 0.0
20/05:30am 8.3 3.6 3.4 71 2.1 SE 17 20 9 11 1035.0 - 0.0
20/05:00am 8.6 3.9 3.2 69 2.3 SSE 17 22 9 12 1035.1 - 0.0
20/04:30am 8.7 4.1 3.6 70 2.2 SSE 17 22 9 12 1034.7 - 0.0
20/04:00am 8.6 4.3 3.5 70 2.2 SSE 15 20 8 11 1034.7 - 0.0
20/03:30am 8.5 5.1 3.9 73 2.0 SSE 11 15 6 8 1034.6 - 0.0
20/03:00am 9.2 5.4 3.7 68 2.4 SSE 13 17 7 9 1034.4 1034.1 0.0
20/02:30am 9.2 5.4 3.9 69 2.3 SSE 13 17 7 9 1034.4 - 0.0
20/02:00am 9.9 5.3 3.5 64 2.8 SE 17 20 9 11 1034.4 - 0.0
20/01:30am 10.0 5.4 3.9 66 2.7 SE 17 19 9 10 1034.4 - 0.0
20/01:00am 10.4 5.8 3.8 63 2.9 SE 17 22 9 12 1034.3 - 0.0
20/12:30am 10.8 5.8 3.8 62 3.1 SE 19 22 10 12 1034.1 - 0.0
20/12:00am 11.2 6.1 4.0 61 3.2 SE 20 24 11 13 1034.1 1033.8 0.0
 
Date/Time
CST
Temp
°C
App
Temp
°C
Dew
Point
Rel
Hum
%
Delta-T
°C
Wind Press
QNH
hPa
Press
MSL
hPa
Rain
since 9 am
mm
Dir
 
Spd
km/h
Gust
km/h
Spd
kts
Gust
kts
19/11:30pm 11.4 6.6 4.5 62 3.1 SSE 19 22 10 12 1034.2 - 0.0
19/11:00pm 11.9 6.9 4.6 61 3.3 SSE 20 26 11 14 1034.4 - 0.0
19/10:30pm 12.1 6.7 4.4 59 3.5 SSE 22 26 12 14 1034.4 - 0.0
19/10:00pm 12.1 6.9 3.5 55 3.9 S 20 24 11 13 1034.3 - 0.0
19/09:30pm 12.8 7.5 2.8 50 4.4 SSE 20 26 11 14 1033.5 - 0.0
19/09:00pm 13.1 7.3 2.3 48 4.7 SSE 22 28 12 15 1033.7 1033.4 0.0
19/08:30pm 13.4 7.2 2.2 46 4.9 SSE 24 30 13 16 1033.3 - 0.0
19/08:00pm 13.7 7.5 2.0 45 5.1 SSE 24 32 13 17 1033.3 - 0.0
19/07:30pm 14.0 8.1 1.5 42 5.5 SSE 22 33 12 18 1032.9 - 0.0
19/07:00pm 14.4 8.0 1.2 40 5.7 SSE 24 32 13 17 1032.4 - 0.0
19/06:30pm 14.9 8.7 2.0 41 5.7 SSE 24 33 13 18 1032.1 - 0.0
19/06:00pm 15.2 7.4 1.5 39 6.0 SSE 32 43 17 23 1031.9 1031.5 0.0
19/05:30pm 16.0 8.0 0.1 34 6.9 SSE 32 41 17 22 1031.4 - 0.0
19/05:00pm 16.4 8.1 -0.3 32 7.2 SSE 33 44 18 24 1031.2 - 0.0
19/04:30pm 17.0 8.3 -0.3 31 7.5 SE 35 43 19 23 1030.9 - 0.0
19/04:00pm 17.1 8.9 0.6 32 7.3 SSE 33 46 18 25 1030.8 - 0.0
19/03:30pm 17.6 10.0 0.4 31 7.6 SSE 30 41 16 22 1030.6 - 0.0
19/03:00pm 17.8 9.8 0.4 31 7.6 SE 32 44 17 24 1030.4 1030.0 0.0
19/02:30pm 17.5 9.5 0.6 32 7.5 SSE 32 46 17 25 1030.2 - 0.0
19/02:00pm 18.2 10.2 0.4 30 7.9 SE 32 41 17 22 1030.3 - 0.0
19/01:30pm 16.9 9.3 0.3 32 7.2 SE 30 39 16 21 1030.5 - 0.0
19/01:00pm 17.2 9.8 1.8 35 7.0 SSE 30 43 16 23 1030.8 - 0.0
19/12:38pm 16.4 8.5 1.1 35 6.8 S 32 39 17 21 1030.9 - 0.0
19/12:30pm 16.6 7.8 1.1 35 6.9 SE 37 48 20 26 1031.0 - 0.0
19/12:24pm 17.2 8.0 1.1 33 7.2 SE 39 48 21 26 1031.0 - 0.0
19/12:00pm 16.7 8.9 1.6 36 6.7 SSE 32 41 17 22 1031.4 1031.0 0.0
19/11:30am 16.6 8.2 1.8 37 6.6 SSE 35 50 19 27 1031.5 - 0.0
19/11:03am 16.2 7.6 2.4 39 6.3 SE 37 56 20 30 1031.4 - 0.0
19/11:00am 16.2 8.1 3.3 42 6.0 SE 35 46 19 25 1031.4 - 0.0
19/10:30am 15.4 7.0 3.6 45 5.4 SE 37 50 20 27 1031.4 - 0.0
19/10:00am 15.2 8.1 5.5 52 4.7 SE 32 46 17 25 1031.3 - 0.0
19/09:30am 14.0 6.4 5.8 57 3.9 SSE 35 44 19 24 1031.1 - 0.0
19/09:00am 13.6 6.7 6.5 62 3.4 SSE 32 41 17 22 1031.0 1030.6 0.0
19/08:30am 13.0 7.0 7.2 68 2.8 SSE 28 41 15 22 1030.6 - 0.0
19/08:00am 11.9 7.2 7.6 75 2.1 SSE 22 30 12 16 1029.8 - 0.0
19/07:30am 10.9 6.8 7.8 81 1.5 S 19 24 10 13 1029.2 - 0.0
19/07:00am 10.5 6.3 7.6 82 1.4 S 19 22 10 12 1028.6 - 0.0
19/06:30am 10.8 6.0 7.5 80 1.6 S 22 26 12 14 1028.3 - 0.0
19/06:00am 11.2 6.5 7.7 79 1.7 S 22 28 12 15 1028.0 1027.7 0.0
19/05:30am 11.9 6.5 7.8 76 2.0 S 26 33 14 18 1027.5 - 0.0
19/05:00am 12.6 8.1 8.4 75 2.1 S 22 33 12 18 1026.9 - 0.0
19/04:30am 12.6 9.2 9.2 80 1.7 S 17 22 9 12 1026.6 - 0.0
19/04:00am 12.8 8.9 9.3 79 1.8 S 20 26 11 14 1026.1 - 0.0
19/03:30am 12.9 9.2 10.2 84 1.4 S 20 24 11 13 1025.9 - 0.0
19/03:00am 13.2 9.0 9.9 80 1.7 S 22 33 12 18 1025.7 1025.3 0.0
19/02:30am 13.1 9.1 10.4 84 1.4 S 22 30 12 16 1025.7 - 0.0
19/02:13am 13.0 7.8 10.3 84 1.4 SSE 28 41 15 22 1025.7 - 0.0
19/02:08am 13.0 7.0 10.1 82 1.5 SSE 32 44 17 24 1025.7 - 0.0
19/02:00am 12.8 7.4 10.9 88 1.0 S 30 39 16 21 1025.7 - 0.0
19/01:53am 12.8 6.9 11.3 91 0.8 S 33 43 18 23 1025.8 - 0.0
19/01:30am 13.2 8.6 12.3 94 0.5 S 28 39 15 21 1025.5 - 0.0
19/01:00am 13.4 8.4 12.3 93 0.6 S 30 41 16 22 1025.2 - 0.0
19/12:57am 13.4 8.0 12.3 93 0.6 S 32 43 17 23 1025.2 - 0.0
19/12:30am 13.3 7.5 12.8 97 0.3 S 35 43 19 23 1024.9 - 0.0
19/12:15am 13.8 7.3 12.9 94 0.5 S 39 48 21 26 1024.7 - 0.0
19/12:01am 14.9 9.0 12.5 85 1.3 S 35 44 19 24 1024.6 - 0.0
19/12:00am 15.0 9.5 12.4 84 1.4 S 33 43 18 23 1024.6 1024.2 0.0
 
Date/Time
CST
Temp
°C
App
Temp
°C
Dew
Point
Rel
Hum
%
Delta-T
°C
Wind Press
QNH
hPa
Press
MSL
hPa
Rain
since 9 am
mm
Dir
 
Spd
km/h
Gust
km/h
Spd
kts
Gust
kts
18/11:30pm 16.0 10.8 12.8 81 1.8 SSW 32 43 17 23 1024.3 - 0.0
18/11:00pm 16.3 12.2 11.5 73 2.6 SW 24 35 13 19 1024.2 - 0.0

Other Formats:

Comma delimited format used in spreadsheet applications
http://www.bom.gov.au/fwo/IDS60801/IDS60801.94659.axf

JavaScript Object Notation format (JSON) in row-major order
http://www.bom.gov.au/fwo/IDS60801/IDS60801.94659.json